Time;durP1;ratioP1;P1;durP2;ratioP2;P2;SDS_P1;SDS_P2;PMS_P1;PMS_P2;Temp;Humidity;BMP_temperature;BMP_pressure;BME280_temperature;BME280_humidity;BME280_pressure;Samples;Min_cycle;Max_cycle;Signal;HPM_P1;HPM_P2
2022/10/04 00:01:04;;;;;;;0.90;0.75;;;;;;;;;;5086988;28;20020;-43
2022/10/04 00:03:36;;;;;;;0.85;0.80;;;;;;;;;;5086441;28;20059;-43
2022/10/04 00:06:05;;;;;;;0.90;0.80;;;;;;;;;;5085765;28;20059;-43
2022/10/04 00:08:44;;;;;;;0.73;0.73;;;;;;;;;;5084910;28;20036;-42
2022/10/04 00:11:22;;;;;;;0.70;0.70;;;;;;;;;;5086225;28;20674;-43
2022/10/04 00:13:56;;;;;;;0.73;0.70;;;;;;;;;;5085781;28;20039;-43
2022/10/04 00:16:31;;;;;;;0.65;0.60;;;;;;;;;;5084657;28;20511;-43
2022/10/04 00:19:18;;;;;;;0.98;0.90;;;;;;;;;;5086102;28;20192;-42
2022/10/04 00:21:55;;;;;;;0.93;0.70;;;;;;;;;;5059336;28;20036;-44
2022/10/04 00:24:26;;;;;;;2.13;0.70;;;;;;;;;;5082665;28;20032;-43
2022/10/04 00:26:52;;;;;;;0.88;0.85;;;;;;;;;;5067637;28;20029;-43
2022/10/04 00:29:38;;;;;;;0.65;0.60;;;;;;;;;;5078020;28;20058;-42
2022/10/04 00:32:07;;;;;;;0.98;0.80;;;;;;;;;;5083089;28;20028;-42
2022/10/04 00:34:33;;;;;;;0.93;0.80;;;;;;;;;;5085430;28;20028;-42
2022/10/04 00:36:59;;;;;;;0.70;0.70;;;;;;;;;;5088444;28;20096;-42
2022/10/04 00:39:31;;;;;;;0.60;0.60;;;;;;;;;;5087535;28;20063;-42
2022/10/04 00:42:17;;;;;;;0.80;0.80;;;;;;;;;;5088018;28;20020;-42
2022/10/04 00:44:56;;;;;;;1.17;0.93;;;;;;;;;;5087129;28;20024;-42
2022/10/04 00:47:34;;;;;;;0.50;0.50;;;;;;;;;;5087717;28;20027;-42
2022/10/04 00:50:12;;;;;;;1.88;0.73;;;;;;;;;;5086334;28;20052;-43
2022/10/04 00:52:42;;;;;;;0.88;0.70;;;;;;;;;;5087027;28;20090;-42
2022/10/04 00:55:09;;;;;;;0.73;0.70;;;;;;;;;;5087433;28;20047;-42
2022/10/04 00:57:47;;;;;;;0.70;0.70;;;;;;;;;;5086800;28;20194;-43
2022/10/04 01:00:18;;;;;;;0.82;0.70;;;;;;;;;;5087271;28;20027;-42
2022/10/04 01:03:00;;;;;;;0.70;0.70;;;;;;;;;;5086543;28;20027;-42
2022/10/04 01:05:31;;;;;;;0.60;0.60;;;;;;;;;;5086630;28;20036;-41
2022/10/04 01:08:17;;;;;;;1.45;0.88;;;;;;;;;;5087878;28;20750;-42
2022/10/04 01:10:43;;;;;;;0.82;0.82;;;;;;;;;;5086539;28;20035;-42
2022/10/04 01:13:15;;;;;;;0.93;0.70;;;;;;;;;;5086812;28;20024;-43
2022/10/04 01:15:50;;;;;;;0.65;0.65;;;;;;;;;;5086673;28;20024;-42
2022/10/04 01:18:19;;;;;;;0.98;0.70;;;;;;;;;;5086312;28;20421;-42
2022/10/04 01:20:52;;;;;;;0.75;0.75;;;;;;;;;;5083963;28;20028;-42
2022/10/04 01:23:32;;;;;;;1.08;0.95;;;;;;;;;;5086449;28;20567;-42
2022/10/04 01:25:58;;;;;;;1.10;1.00;;;;;;;;;;5078969;28;20058;-42
2022/10/04 01:28:25;;;;;;;0.70;0.70;;;;;;;;;;5071370;28;20531;-42
2022/10/04 01:30:51;;;;;;;1.17;1.08;;;;;;;;;;5066198;28;20055;-42
2022/10/04 01:33:18;;;;;;;0.73;0.70;;;;;;;;;;5066063;28;20058;-42
2022/10/04 01:35:44;;;;;;;1.08;0.98;;;;;;;;;;5079550;28;20637;-42
2022/10/04 01:38:11;;;;;;;0.98;0.88;;;;;;;;;;5085734;28;20020;-41
2022/10/04 01:40:42;;;;;;;0.80;0.80;;;;;;;;;;5085158;28;20031;-43
2022/10/04 01:43:12;;;;;;;1.30;1.00;;;;;;;;;;5084941;28;20026;-42
2022/10/04 01:45:42;;;;;;;0.88;0.88;;;;;;;;;;5086408;28;20023;-42
2022/10/04 01:48:10;;;;;;;1.17;0.80;;;;;;;;;;5086560;28;20085;-42
2022/10/04 01:50:39;;;;;;;1.13;0.90;;;;;;;;;;5076498;28;20496;-43
2022/10/04 01:53:34;;;;;;;1.48;0.95;;;;;;;;;;5066299;28;20103;-42
2022/10/04 01:56:20;;;;;;;1.00;0.90;;;;;;;;;;5057757;28;20068;-43
2022/10/04 01:58:58;;;;;;;1.23;1.10;;;;;;;;;;5065924;28;20096;-42
2022/10/04 02:01:29;;;;;;;1.75;1.10;;;;;;;;;;5084194;28;20032;-42
2022/10/04 02:04:16;;;;;;;0.82;0.82;;;;;;;;;;5086381;28;20020;-42
2022/10/04 02:06:44;;;;;;;1.10;0.98;;;;;;;;;;5089777;28;20032;-42
2022/10/04 02:09:13;;;;;;;1.35;0.90;;;;;;;;;;5090793;28;20028;-43
2022/10/04 02:11:40;;;;;;;1.00;0.90;;;;;;;;;;5088407;28;21604;-42
2022/10/04 02:14:14;;;;;;;1.42;0.98;;;;;;;;;;5086216;28;20028;-42
2022/10/04 02:16:40;;;;;;;1.38;1.00;;;;;;;;;;5069955;28;20028;-42
2022/10/04 02:19:08;;;;;;;1.40;1.15;;;;;;;;;;5070528;28;20024;-42
2022/10/04 02:21:36;;;;;;;1.05;1.00;;;;;;;;;;5069928;28;20025;-43
2022/10/04 02:24:02;;;;;;;1.65;1.25;;;;;;;;;;5070080;28;20028;-41
2022/10/04 02:26:29;;;;;;;1.10;1.00;;;;;;;;;;5081296;28;20039;-43
2022/10/04 02:28:55;;;;;;;1.55;1.23;;;;;;;;;;5090427;28;20035;-42
2022/10/04 02:34:07;;;;;;;1.33;1.00;;;;;;;;;;5070180;28;20085;-42
2022/10/04 02:36:34;;;;;;;1.40;1.00;;;;;;;;;;5069624;28;20429;-41
2022/10/04 02:39:03;;;;;;;2.08;1.10;;;;;;;;;;5070549;28;20698;-42
2022/10/04 02:41:32;;;;;;;1.05;1.00;;;;;;;;;;5071520;28;20118;-42
2022/10/04 02:44:16;;;;;;;1.33;1.23;;;;;;;;;;5090639;28;20024;-42
2022/10/04 02:46:52;;;;;;;1.40;1.05;;;;;;;;;;5089520;28;20097;-42
2022/10/04 02:49:36;;;;;;;1.17;1.05;;;;;;;;;;5090095;28;20047;-41
2022/10/04 02:52:03;;;;;;;1.15;1.05;;;;;;;;;;5088565;28;20456;-41
2022/10/04 02:54:32;;;;;;;1.15;1.05;;;;;;;;;;5082071;28;20024;-41
2022/10/04 02:57:00;;;;;;;1.23;1.13;;;;;;;;;;5070099;28;20060;-42
2022/10/04 02:59:26;;;;;;;3.05;1.10;;;;;;;;;;5069659;28;20027;-42
2022/10/04 03:01:52;;;;;;;1.58;1.27;;;;;;;;;;5068938;28;20036;-42
2022/10/04 03:04:20;;;;;;;1.02;0.90;;;;;;;;;;5089302;28;20024;-42
2022/10/04 03:06:46;;;;;;;0.90;0.90;;;;;;;;;;5089388;28;20043;-41
2022/10/04 03:09:13;;;;;;;1.75;0.95;;;;;;;;;;5089617;28;20022;-41
2022/10/04 03:11:40;;;;;;;1.00;0.90;;;;;;;;;;5087744;28;20040;-41
2022/10/04 03:14:09;;;;;;;1.20;1.02;;;;;;;;;;5089711;28;20059;-42
2022/10/04 03:16:39;;;;;;;1.10;1.00;;;;;;;;;;5087301;28;20084;-42
2022/10/04 03:19:06;;;;;;;1.15;1.05;;;;;;;;;;5089504;28;20101;-42
2022/10/04 03:21:33;;;;;;;1.08;0.98;;;;;;;;;;5089385;28;20024;-42
2022/10/04 03:24:00;;;;;;;1.33;1.05;;;;;;;;;;5089908;28;20035;-42
2022/10/04 03:26:37;;;;;;;0.88;0.82;;;;;;;;;;5076554;28;20495;-42
2022/10/04 03:29:10;;;;;;;1.20;1.10;;;;;;;;;;5068936;28;20039;-41
2022/10/04 03:31:45;;;;;;;1.10;1.00;;;;;;;;;;5068430;28;20046;-42
2022/10/04 03:34:20;;;;;;;1.25;1.08;;;;;;;;;;5069021;28;20028;-41
2022/10/04 03:36:46;;;;;;;1.20;1.10;;;;;;;;;;5075610;28;20024;-42
2022/10/04 03:39:26;;;;;;;1.55;1.20;;;;;;;;;;5081271;28;20040;-41
2022/10/04 03:41:53;;;;;;;1.70;1.20;;;;;;;;;;5067304;28;20021;-42
2022/10/04 03:44:20;;;;;;;1.20;1.10;;;;;;;;;;5067892;28;20028;-41
2022/10/04 03:46:46;;;;;;;2.00;1.08;;;;;;;;;;5067371;28;20107;-42
2022/10/04 03:49:17;;;;;;;1.23;1.13;;;;;;;;;;5082764;28;20032;-42
2022/10/04 03:51:48;;;;;;;2.45;0.90;;;;;;;;;;5088315;28;20032;-42
2022/10/04 03:54:16;;;;;;;1.60;1.17;;;;;;;;;;5088732;28;20035;-42
2022/10/04 03:56:44;;;;;;;1.70;1.40;;;;;;;;;;5087109;28;20502;-42
2022/10/04 03:59:13;;;;;;;3.22;1.70;;;;;;;;;;5088775;28;20021;-41
2022/10/04 04:01:42;;;;;;;4.22;2.15;;;;;;;;;;5088170;28;20032;-42
2022/10/04 04:04:30;;;;;;;3.72;2.10;;;;;;;;;;5087816;28;20020;-42
2022/10/04 04:07:01;;;;;;;3.17;1.85;;;;;;;;;;5088044;28;20071;-42
2022/10/04 04:09:50;;;;;;;3.28;2.40;;;;;;;;;;5081126;28;20376;-42
2022/10/04 04:12:33;;;;;;;2.92;2.10;;;;;;;;;;5086208;28;20039;-42
2022/10/04 04:15:00;;;;;;;4.10;2.40;;;;;;;;;;5089085;28;20032;-42
2022/10/04 04:17:26;;;;;;;3.58;2.33;;;;;;;;;;5088280;28;20081;-42
2022/10/04 04:19:57;;;;;;;7.30;2.83;;;;;;;;;;5087983;28;20030;-41
2022/10/04 04:22:24;;;;;;;4.13;2.72;;;;;;;;;;5087523;28;20020;-42
2022/10/04 04:24:51;;;;;;;3.20;2.50;;;;;;;;;;5087952;28;20406;-42
2022/10/04 04:27:17;;;;;;;3.03;2.05;;;;;;;;;;5087975;28;20564;-42
2022/10/04 04:29:51;;;;;;;3.75;2.30;;;;;;;;;;5087451;28;20020;-41
2022/10/04 04:32:17;;;;;;;;;;;;;;;;;;5086879;28;20498;-42
2022/10/04 04:35:07;;;;;;;4.57;2.80;;;;;;;;;;5087679;28;19908;-43
2022/10/04 04:37:37;;;;;;;3.90;2.75;;;;;;;;;;5087797;28;20526;-42
2022/10/04 04:40:15;;;;;;;4.47;2.40;;;;;;;;;;5085936;28;20046;-42
2022/10/04 04:42:43;;;;;;;3.45;2.15;;;;;;;;;;5085728;28;20032;-42
2022/10/04 04:45:18;;;;;;;3.38;2.60;;;;;;;;;;5087502;28;20035;-42
2022/10/04 04:47:47;;;;;;;3.70;2.33;;;;;;;;;;5087527;28;20084;-42
2022/10/04 04:50:18;;;;;;;2.92;2.10;;;;;;;;;;5087266;28;20107;-42
2022/10/04 04:52:50;;;;;;;3.78;2.22;;;;;;;;;;5086252;28;20127;-42
2022/10/04 04:55:43;;;;;;;4.53;2.55;;;;;;;;;;5087516;28;20100;-42
2022/10/04 04:58:14;;;;;;;3.85;2.53;;;;;;;;;;5085872;28;20055;-42
2022/10/04 05:00:40;;;;;;;3.80;2.35;;;;;;;;;;5085967;28;20197;-42
2022/10/04 05:03:16;;;;;;;4.18;2.50;;;;;;;;;;5087501;28;20024;-42
2022/10/04 05:05:46;;;;;;;3.88;2.10;;;;;;;;;;5087263;28;20099;-42
2022/10/04 05:08:14;;;;;;;3.10;2.20;;;;;;;;;;5085609;28;20032;-42
2022/10/04 05:10:50;;;;;;;3.88;2.42;;;;;;;;;;5085313;28;20089;-42
2022/10/04 05:13:18;;;;;;;4.43;2.58;;;;;;;;;;5087270;28;20419;-42
2022/10/04 05:15:45;;;;;;;2.85;2.00;;;;;;;;;;5086916;28;20103;-42
2022/10/04 05:18:22;;;;;;;4.32;2.45;;;;;;;;;;5087266;28;20028;-42
2022/10/04 05:20:49;;;;;;;2.92;2.13;;;;;;;;;;5085184;28;20070;-42
2022/10/04 05:23:15;;;;;;;3.47;2.40;;;;;;;;;;5086563;28;20047;-42
2022/10/04 05:25:42;;;;;;;2.95;2.17;;;;;;;;;;5086867;28;20034;-42
2022/10/04 05:28:13;;;;;;;2.47;1.98;;;;;;;;;;5087079;28;20039;-41
2022/10/04 05:30:49;;;;;;;2.40;1.85;;;;;;;;;;5086768;28;20035;-41
2022/10/04 05:33:39;;;;;;;2.10;1.80;;;;;;;;;;5086916;28;20059;-41
2022/10/04 05:36:22;;;;;;;3.63;2.25;;;;;;;;;;5084111;28;20063;-42
2022/10/04 05:39:07;;;;;;;3.80;2.47;;;;;;;;;;5084278;28;20048;-42
2022/10/04 05:41:33;;;;;;;;;;;;;;;;;;5086599;28;20031;-41
2022/10/04 05:44:01;;;;;;;3.72;2.35;;;;;;;;;;5087540;28;19904;-42
2022/10/04 05:46:30;;;;;;;3.58;2.42;;;;;;;;;;5086883;28;20028;-42
2022/10/04 05:49:07;;;;;;;3.08;2.00;;;;;;;;;;5086369;28;20024;-42
2022/10/04 05:51:36;;;;;;;3.95;2.35;;;;;;;;;;5085000;28;20048;-42
2022/10/04 05:54:03;;;;;;;3.08;2.17;;;;;;;;;;5086832;28;20032;-42
2022/10/04 05:56:29;;;;;;;4.75;2.40;;;;;;;;;;5087239;28;20024;-42
2022/10/04 05:59:01;;;;;;;2.85;2.20;;;;;;;;;;5086437;28;20918;-41
2022/10/04 06:01:33;;;;;;;2.53;2.13;;;;;;;;;;5079870;28;20057;-42
2022/10/04 06:04:18;;;;;;;3.20;2.10;;;;;;;;;;5074845;28;20077;-42
2022/10/04 06:06:50;;;;;;;2.90;2.45;;;;;;;;;;5086407;28;20056;-42
2022/10/04 06:09:25;;;;;;;3.30;2.40;;;;;;;;;;5083055;28;20043;-42
2022/10/04 06:12:05;;;;;;;3.35;2.20;;;;;;;;;;5066098;28;20086;-41
2022/10/04 06:14:47;;;;;;;2.95;2.28;;;;;;;;;;5079016;28;20110;-42
2022/10/04 06:17:13;;;;;;;3.33;2.20;;;;;;;;;;5084577;28;20121;-41
2022/10/04 06:19:58;;;;;;;3.35;2.50;;;;;;;;;;5074137;28;20476;-42
2022/10/04 06:22:25;;;;;;;3.25;2.42;;;;;;;;;;5078319;28;20020;-41
2022/10/04 06:24:57;;;;;;;3.55;2.42;;;;;;;;;;5076107;28;20020;-41
2022/10/04 06:27:29;;;;;;;2.95;2.30;;;;;;;;;;5069498;28;20045;-42
2022/10/04 06:29:58;;;;;;;3.10;2.20;;;;;;;;;;5069161;28;20016;-42
2022/10/04 06:32:48;;;;;;;2.97;2.33;;;;;;;;;;5084208;28;20113;-41
2022/10/04 06:35:20;;;;;;;2.90;2.28;;;;;;;;;;5074267;28;20028;-42
2022/10/04 06:38:06;;;;;;;3.30;2.40;;;;;;;;;;5086050;28;20032;-41
2022/10/04 06:40:47;;;;;;;2.78;2.22;;;;;;;;;;5087242;28;20429;-42
2022/10/04 06:43:31;;;;;;;3.22;2.33;;;;;;;;;;5086279;28;20024;-41
2022/10/04 06:46:00;;;;;;;2.63;2.22;;;;;;;;;;5076065;28;20028;-41
2022/10/04 06:48:45;;;;;;;3.13;2.40;;;;;;;;;;5077489;28;20086;-42
2022/10/04 06:51:21;;;;;;;2.22;2.00;;;;;;;;;;5066855;28;20044;-42
2022/10/04 06:53:47;;;;;;;3.97;2.65;;;;;;;;;;5083246;28;20035;-41
2022/10/04 06:56:32;;;;;;;2.97;2.40;;;;;;;;;;5089982;28;20024;-42
2022/10/04 06:59:17;;;;;;;2.75;2.30;;;;;;;;;;5084322;28;20172;-42
2022/10/04 07:01:48;;;;;;;4.05;2.30;;;;;;;;;;5086112;28;20596;-42
2022/10/04 07:04:34;;;;;;;3.90;2.40;;;;;;;;;;5077711;28;20107;-42
2022/10/04 07:07:23;;;;;;;2.55;2.05;;;;;;;;;;5089086;28;20032;-42
2022/10/04 07:10:10;;;;;;;2.88;2.20;;;;;;;;;;5089584;28;20032;-42
2022/10/04 07:12:40;;;;;;;3.45;2.80;;;;;;;;;;5083682;28;20449;-42
2022/10/04 07:15:14;;;;;;;4.43;2.83;;;;;;;;;;5087858;28;20130;-42
2022/10/04 07:17:41;;;;;;;2.85;2.35;;;;;;;;;;5086739;28;20503;-42
2022/10/04 07:20:17;;;;;;;3.65;2.60;;;;;;;;;;5086948;28;20032;-42
2022/10/04 07:22:58;;;;;;;3.67;2.50;;;;;;;;;;5086375;28;20568;-42
2022/10/04 07:25:29;;;;;;;3.00;2.42;;;;;;;;;;5088197;28;20087;-42
2022/10/04 07:30:57;;;;;;;3.13;2.33;;;;;;;;;;5087565;28;20434;-42
2022/10/04 07:33:24;;;;;;;2.45;2.03;;;;;;;;;;5087799;28;20030;-42
2022/10/04 07:35:53;;;;;;;2.22;2.03;;;;;;;;;;5087923;28;20032;-42
2022/10/04 07:38:24;;;;;;;2.63;2.30;;;;;;;;;;5087503;28;20020;-42
2022/10/04 07:41:11;;;;;;;2.67;2.00;;;;;;;;;;5087698;28;20441;-42
2022/10/04 07:43:57;;;;;;;2.30;2.10;;;;;;;;;;5065248;28;20063;-42
2022/10/04 07:46:26;;;;;;;2.60;2.13;;;;;;;;;;5087586;28;20494;-42
2022/10/04 07:48:52;;;;;;;2.03;1.83;;;;;;;;;;5087271;28;20430;-42
2022/10/04 07:51:39;;;;;;;2.78;2.10;;;;;;;;;;5087589;28;20024;-42
2022/10/04 07:54:11;;;;;;;3.22;1.98;;;;;;;;;;5087207;28;20526;-41
2022/10/04 07:56:40;;;;;;;2.33;1.80;;;;;;;;;;5087122;28;20318;-42
2022/10/04 07:59:16;;;;;;;2.80;2.08;;;;;;;;;;5086761;28;20024;-42
2022/10/04 08:02:00;;;;;;;2.67;2.15;;;;;;;;;;5086874;28;20461;-42
2022/10/04 08:04:45;;;;;;;2.97;2.22;;;;;;;;;;5086544;28;20021;-42
2022/10/04 08:07:17;;;;;;;3.13;2.00;;;;;;;;;;5087277;28;20364;-42
2022/10/04 08:09:59;;;;;;;2.63;1.95;;;;;;;;;;5087014;28;20493;-43
2022/10/04 08:12:34;;;;;;;1.73;1.60;;;;;;;;;;5087099;28;20410;-42
2022/10/04 08:15:12;;;;;;;2.42;2.10;;;;;;;;;;5085972;28;20504;-42
2022/10/04 08:17:40;;;;;;;3.00;2.13;;;;;;;;;;5086755;28;20499;-42
2022/10/04 08:20:13;;;;;;;3.00;2.03;;;;;;;;;;5086773;28;20032;-42
2022/10/04 08:22:54;;;;;;;2.30;2.10;;;;;;;;;;5086544;28;20061;-42
2022/10/04 08:25:23;;;;;;;2.55;2.20;;;;;;;;;;5086701;28;20091;-42
2022/10/04 08:30:53;;;;;;;3.10;2.40;;;;;;;;;;5086640;28;20059;-42
2022/10/04 08:33:21;;;;;;;3.30;2.45;;;;;;;;;;5073779;28;20541;-42
2022/10/04 08:36:07;;;;;;;2.65;2.13;;;;;;;;;;5066312;28;20028;-42
2022/10/04 08:38:41;;;;;;;3.30;2.38;;;;;;;;;;5067495;28;20106;-43
2022/10/04 08:41:10;;;;;;;3.40;2.47;;;;;;;;;;5067321;28;20024;-42
2022/10/04 08:43:55;;;;;;;4.03;3.05;;;;;;;;;;5066557;28;20024;-42
2022/10/04 08:46:33;;;;;;;3.97;3.22;;;;;;;;;;5072913;28;20934;-42
2022/10/04 08:48:59;;;;;;;4.72;3.05;;;;;;;;;;5086618;28;20032;-41
2022/10/04 08:51:25;;;;;;;3.08;2.75;;;;;;;;;;5083333;28;20047;-42
2022/10/04 08:53:51;;;;;;;3.05;2.30;;;;;;;;;;5088166;28;20102;-42
2022/10/04 08:56:36;;;;;;;4.82;2.78;;;;;;;;;;5085028;28;20158;-42
2022/10/04 08:59:05;;;;;;;4.20;2.50;;;;;;;;;;5084361;28;20437;-42
2022/10/04 09:01:51;;;;;;;3.40;2.80;;;;;;;;;;5085224;28;20646;-42
2022/10/04 09:04:35;;;;;;;3.53;2.75;;;;;;;;;;5087740;28;20058;-42
2022/10/04 09:07:01;;;;;;;;;;;;;;;;;;5086929;28;20035;-42
2022/10/04 09:09:33;;;;;;;3.05;2.25;;;;;;;;;;5071868;28;19965;-42
2022/10/04 09:12:15;;;;;;;2.63;2.08;;;;;;;;;;5085736;28;20052;-41
2022/10/04 09:14:50;;;;;;;3.45;2.70;;;;;;;;;;5086761;28;20616;-42
2022/10/04 09:17:34;;;;;;;3.95;3.03;;;;;;;;;;5084778;28;20410;-42
2022/10/04 09:20:10;;;;;;;3.58;2.60;;;;;;;;;;5087266;28;20024;-42
2022/10/04 09:22:47;;;;;;;4.80;2.88;;;;;;;;;;5086109;28;20491;-42
2022/10/04 09:25:25;;;;;;;3.17;2.42;;;;;;;;;;5086801;28;20105;-42
2022/10/04 09:28:12;;;;;;;3.78;2.83;;;;;;;;;;5086561;28;20549;-42
2022/10/04 09:30:56;;;;;;;3.08;2.47;;;;;;;;;;5083660;28;20575;-42
2022/10/04 09:33:22;;;;;;;2.90;2.40;;;;;;;;;;5086990;28;20609;-41
2022/10/04 09:35:58;;;;;;;3.40;2.63;;;;;;;;;;5084580;28;20406;-42
2022/10/04 09:38:42;;;;;;;2.83;2.40;;;;;;;;;;5084179;28;20045;-42
2022/10/04 09:41:19;;;;;;;2.88;2.30;;;;;;;;;;5081189;28;20048;-42
2022/10/04 09:43:54;;;;;;;3.17;2.60;;;;;;;;;;5083745;28;20031;-42
2022/10/04 09:46:31;;;;;;;3.35;2.60;;;;;;;;;;5079734;28;20020;-42
2022/10/04 09:48:57;;;;;;;2.90;2.20;;;;;;;;;;5065205;28;20403;-42
2022/10/04 09:51:42;;;;;;;2.65;2.38;;;;;;;;;;5078652;28;20046;-42
2022/10/04 09:54:14;;;;;;;2.67;2.20;;;;;;;;;;5086596;28;20028;-42
2022/10/04 09:56:46;;;;;;;3.20;2.45;;;;;;;;;;5081387;28;20070;-42
2022/10/04 09:59:34;;;;;;;2.92;2.28;;;;;;;;;;5070369;28;20032;-42
2022/10/04 10:02:01;;;;;;;2.58;2.17;;;;;;;;;;5080783;28;20047;-42
2022/10/04 10:04:36;;;;;;;2.97;2.35;;;;;;;;;;5080217;28;20020;-42
2022/10/04 10:07:17;;;;;;;2.40;1.95;;;;;;;;;;5075946;28;20406;-42
2022/10/04 10:13:44;;;;;;;3.47;2.40;;;;;;;;;;5083895;28;20066;-42
2022/10/04 10:16:18;;;;;;;4.03;2.50;;;;;;;;;;5008409;28;20032;-42
2022/10/04 10:19:04;;;;;;;2.38;1.90;;;;;;;;;;5010519;28;20535;-42
2022/10/04 10:21:39;;;;;;;2.28;1.90;;;;;;;;;;5067909;28;20032;-42
2022/10/04 10:24:19;;;;;;;2.28;1.88;;;;;;;;;;5086694;28;20060;-42
2022/10/04 10:26:48;;;;;;;2.72;2.03;;;;;;;;;;5086422;28;20024;-42
2022/10/04 10:29:33;;;;;;;1.98;1.77;;;;;;;;;;5090349;28;20256;-42
2022/10/04 10:32:11;;;;;;;2.30;2.10;;;;;;;;;;5088527;28;20020;-43
2022/10/04 10:34:45;;;;;;;2.58;2.10;;;;;;;;;;5089771;28;20028;-42
2022/10/04 10:37:14;;;;;;;3.00;2.60;;;;;;;;;;5082443;28;20028;-42
2022/10/04 10:39:52;;;;;;;2.88;2.25;;;;;;;;;;5070558;28;20566;-42
2022/10/04 10:42:26;;;;;;;2.13;1.83;;;;;;;;;;5085639;28;20478;-44
2022/10/04 10:45:04;;;;;;;2.45;1.98;;;;;;;;;;5077370;28;20043;-43
2022/10/04 10:47:43;;;;;;;1.90;1.58;;;;;;;;;;5088103;28;20030;-42
2022/10/04 10:50:26;;;;;;;1.90;1.70;;;;;;;;;;5080389;28;20426;-43
2022/10/04 10:52:55;;;;;;;1.60;1.50;;;;;;;;;;5086081;28;20040;-42
2022/10/04 10:55:28;;;;;;;1.88;1.50;;;;;;;;;;5075675;28;20077;-42
2022/10/04 10:58:00;;;;;;;1.63;1.40;;;;;;;;;;5084090;28;20657;-43
2022/10/04 11:00:32;;;;;;;1.73;1.63;;;;;;;;;;5088155;28;20063;-43
2022/10/04 11:03:23;;;;;;;1.50;1.40;;;;;;;;;;5088995;28;20022;-42
2022/10/04 11:05:58;;;;;;;1.85;1.67;;;;;;;;;;5087015;28;20039;-43
2022/10/04 11:08:28;;;;;;;1.52;1.42;;;;;;;;;;5080289;28;20033;-42
2022/10/04 11:10:54;;;;;;;1.50;1.40;;;;;;;;;;5080189;28;20414;-43
2022/10/04 11:13:41;;;;;;;1.40;1.30;;;;;;;;;;5088554;28;20032;-42
2022/10/04 11:16:18;;;;;;;1.27;1.17;;;;;;;;;;5077061;28;20560;-43
2022/10/04 11:18:56;;;;;;;1.30;1.20;;;;;;;;;;5084133;28;20484;-43
2022/10/04 11:21:34;;;;;;;1.55;1.45;;;;;;;;;;5086669;28;20039;-43
2022/10/04 11:24:20;;;;;;;1.38;1.27;;;;;;;;;;5089433;28;20077;-43
2022/10/04 11:26:51;;;;;;;1.20;1.00;;;;;;;;;;5087755;28;20032;-42
2022/10/04 11:29:30;;;;;;;1.30;1.20;;;;;;;;;;5087080;28;20070;-44
2022/10/04 11:32:02;;;;;;;1.83;1.50;;;;;;;;;;5087933;28;20066;-43
2022/10/04 11:34:47;;;;;;;1.05;0.95;;;;;;;;;;5088485;28;20088;-43
2022/10/04 11:37:18;;;;;;;1.40;1.30;;;;;;;;;;5087747;28;20115;-43
2022/10/04 11:39:44;;;;;;;1.25;1.15;;;;;;;;;;5088061;28;20027;-42
2022/10/04 11:42:17;;;;;;;1.50;1.40;;;;;;;;;;5087700;28;20058;-42
2022/10/04 11:45:02;;;;;;;1.42;1.33;;;;;;;;;;5088404;28;20095;-42
2022/10/04 11:47:40;;;;;;;3.42;1.20;;;;;;;;;;5088519;28;20434;-43
2022/10/04 11:50:24;;;;;;;1.40;1.30;;;;;;;;;;5088249;28;20544;-43
2022/10/04 11:52:50;;;;;;;;;;;;;;;;;;5087040;28;20024;-43
2022/10/04 11:55:25;;;;;;;1.17;1.08;;;;;;;;;;5087460;28;19988;-42
2022/10/04 11:57:57;;;;;;;1.00;0.90;;;;;;;;;;5085319;28;20035;-43
2022/10/04 12:00:24;;;;;;;1.10;1.00;;;;;;;;;;5088345;28;20091;-43
2022/10/04 12:03:09;;;;;;;1.13;1.02;;;;;;;;;;5087957;28;20020;-42
2022/10/04 12:05:54;;;;;;;1.63;1.40;;;;;;;;;;5087861;28;20032;-43
2022/10/04 12:08:28;;;;;;;0.70;0.70;;;;;;;;;;5088127;28;20656;-43
2022/10/04 12:11:00;;;;;;;1.08;0.98;;;;;;;;;;5086290;28;20024;-43
2022/10/04 12:13:43;;;;;;;1.40;0.90;;;;;;;;;;5087909;28;20024;-43
2022/10/04 12:16:28;;;;;;;1.50;1.02;;;;;;;;;;5086340;28;20051;-43
2022/10/04 12:18:54;;;;;;;;;;;;;;;;;;5069295;28;20027;-43
2022/10/04 12:21:39;;;;;;;0.90;0.90;;;;;;;;;;5071172;28;19944;-43
2022/10/04 12:24:23;;;;;;;0.90;0.80;;;;;;;;;;5078157;28;20024;-43
2022/10/04 12:26:54;;;;;;;0.75;0.75;;;;;;;;;;5087366;28;20078;-43
2022/10/04 12:29:44;;;;;;;0.70;0.60;;;;;;;;;;5081017;28;20031;-43
2022/10/04 12:32:30;;;;;;;0.88;0.88;;;;;;;;;;5075232;28;20228;-44
2022/10/04 12:35:18;;;;;;;0.80;0.80;;;;;;;;;;5074247;28;20705;-43
2022/10/04 12:38:10;;;;;;;1.02;1.00;;;;;;;;;;5077192;28;20024;-42
2022/10/04 12:40:36;;;;;;;0.90;0.90;;;;;;;;;;5078237;28;20062;-43
2022/10/04 12:43:16;;;;;;;0.82;0.80;;;;;;;;;;5076548;28;20102;-42
2022/10/04 12:45:51;;;;;;;0.80;0.77;;;;;;;;;;5079069;28;20024;-43
2022/10/04 12:48:23;;;;;;;0.90;0.77;;;;;;;;;;5077390;28;20027;-43
2022/10/04 12:51:01;;;;;;;0.88;0.85;;;;;;;;;;5083374;28;20035;-44
2022/10/04 12:53:31;;;;;;;1.13;1.02;;;;;;;;;;5075874;28;20024;-43
2022/10/04 12:56:12;;;;;;;0.60;0.60;;;;;;;;;;5086406;28;20020;-43
2022/10/04 12:58:44;;;;;;;1.67;1.40;;;;;;;;;;5077400;28;20016;-43
2022/10/04 13:01:16;;;;;;;1.20;1.10;;;;;;;;;;5065898;28;20051;-41
2022/10/04 13:03:51;;;;;;;0.80;0.80;;;;;;;;;;5065499;28;20016;-41
2022/10/04 13:06:44;;;;;;;1.10;1.00;;;;;;;;;;5067220;28;20028;-41
2022/10/04 13:09:25;;;;;;;0.77;0.77;;;;;;;;;;5085477;28;20526;-42
2022/10/04 13:12:03;;;;;;;0.98;0.85;;;;;;;;;;5071836;28;20035;-41
2022/10/04 13:14:29;;;;;;;0.68;0.68;;;;;;;;;;5082685;28;20050;-42
2022/10/04 13:17:18;;;;;;;0.70;0.70;;;;;;;;;;5082731;28;20495;-41
2022/10/04 13:20:00;;;;;;;1.00;0.90;;;;;;;;;;5082522;28;20047;-43
2022/10/04 13:22:26;;;;;;;0.70;0.70;;;;;;;;;;5083593;28;20055;-42
2022/10/04 13:25:01;;;;;;;0.77;0.77;;;;;;;;;;5079369;28;20024;-41
2022/10/04 13:27:37;;;;;;;0.70;0.70;;;;;;;;;;5072376;28;20577;-41
2022/10/04 13:30:06;;;;;;;0.60;0.60;;;;;;;;;;5079872;28;20023;-42
2022/10/04 13:32:41;;;;;;;0.68;0.68;;;;;;;;;;5070450;28;20525;-42
2022/10/04 13:35:16;;;;;;;0.68;0.60;;;;;;;;;;5076052;28;20368;-42
2022/10/04 13:37:52;;;;;;;0.73;0.73;;;;;;;;;;5072088;28;20027;-42
2022/10/04 13:40:36;;;;;;;0.80;0.80;;;;;;;;;;5085264;28;20016;-42
2022/10/04 13:43:02;;;;;;;;;;;;;;;;;;5085107;28;20107;-42
2022/10/04 13:46:01;;;;;;;1.10;0.98;;;;;;;;;;5081069;28;19999;-41
2022/10/04 13:48:36;;;;;;;0.93;0.90;;;;;;;;;;5041703;28;20120;-41
2022/10/04 13:51:09;;;;;;;1.17;1.02;;;;;;;;;;5065072;28;20096;-41
2022/10/04 13:56:39;;;;;;;0.88;0.60;;;;;;;;;;5070017;28;20048;-41
2022/10/04 13:59:31;;;;;;;0.90;0.90;;;;;;;;;;5093028;28;20485;-41
2022/10/04 14:01:57;;;;;;;0.95;0.85;;;;;;;;;;5059383;28;20068;-41
2022/10/04 14:04:23;;;;;;;0.90;0.90;;;;;;;;;;5064434;28;20117;-41
2022/10/04 14:06:52;;;;;;;1.25;0.80;;;;;;;;;;5064458;28;20031;-41
2022/10/04 14:09:21;;;;;;;1.40;0.82;;;;;;;;;;5066818;28;20047;-41
2022/10/04 14:12:07;;;;;;;1.05;1.02;;;;;;;;;;5097680;28;20019;-42
2022/10/04 14:14:39;;;;;;;0.80;0.80;;;;;;;;;;5102441;28;20581;-42
2022/10/04 14:17:23;;;;;;;0.70;0.60;;;;;;;;;;5093744;28;20078;-41
2022/10/04 14:20:01;;;;;;;0.80;0.80;;;;;;;;;;5081977;28;20505;-41
2022/10/04 14:22:45;;;;;;;0.82;0.82;;;;;;;;;;5083432;28;20028;-42
2022/10/04 14:25:15;;;;;;;0.80;0.80;;;;;;;;;;5079723;28;20028;-42
2022/10/04 14:28:02;;;;;;;1.08;1.00;;;;;;;;;;5084602;28;20039;-42
2022/10/04 14:30:29;;;;;;;1.95;1.05;;;;;;;;;;5077493;28;20498;-42
2022/10/04 14:33:19;;;;;;;1.35;1.17;;;;;;;;;;5084494;28;20036;-41
2022/10/04 14:35:56;;;;;;;1.27;1.17;;;;;;;;;;5085425;28;20039;-42
2022/10/04 14:38:25;;;;;;;1.25;1.05;;;;;;;;;;5083572;28;20028;-42
2022/10/04 14:41:11;;;;;;;1.10;1.00;;;;;;;;;;5084633;28;20070;-42
2022/10/04 14:44:12;;;;;;;1.20;1.10;;;;;;;;;;5084268;28;20020;-42
2022/10/04 14:46:57;;;;;;;1.20;1.10;;;;;;;;;;5027519;28;20037;-42
2022/10/04 14:49:29;;;;;;;1.27;1.17;;;;;;;;;;5074159;28;20048;-42
2022/10/04 14:52:15;;;;;;;1.58;1.35;;;;;;;;;;5073990;28;20986;-41
2022/10/04 14:54:52;;;;;;;1.17;1.08;;;;;;;;;;5076591;28;20024;-41
2022/10/04 14:57:37;;;;;;;1.30;1.20;;;;;;;;;;5077931;28;20026;-42
2022/10/04 15:00:03;;;;;;;;;;;;;;;;;;5078649;28;20032;-41
2022/10/04 15:02:32;;;;;;;1.70;1.40;;;;;;;;;;5076781;28;20359;-41
2022/10/04 15:05:18;;;;;;;1.92;1.70;;;;;;;;;;5079967;28;20024;-41
2022/10/04 15:07:49;;;;;;;2.10;1.35;;;;;;;;;;5079024;28;20022;-41
2022/10/04 15:10:30;;;;;;;1.67;1.58;;;;;;;;;;5083894;28;20821;-42
2022/10/04 15:12:56;;;;;;;1.60;1.50;;;;;;;;;;5077700;28;20089;-42
2022/10/04 15:15:25;;;;;;;1.83;1.38;;;;;;;;;;5087508;28;20455;-42
2022/10/04 15:17:51;;;;;;;1.45;1.35;;;;;;;;;;5088407;28;20119;-42
2022/10/04 15:20:23;;;;;;;1.20;1.10;;;;;;;;;;5088388;28;20104;-43
2022/10/04 15:23:11;;;;;;;1.98;1.58;;;;;;;;;;5092875;28;20032;-42
2022/10/04 15:25:54;;;;;;;2.75;1.38;;;;;;;;;;5087003;28;20539;-45
2022/10/04 15:28:33;;;;;;;4.15;1.80;;;;;;;;;;5085843;28;20418;-41
2022/10/04 15:31:05;;;;;;;1.92;1.63;;;;;;;;;;5086272;28;20008;-42
2022/10/04 15:33:45;;;;;;;1.60;1.50;;;;;;;;;;5086958;28;20038;-40
2022/10/04 15:36:23;;;;;;;1.60;1.50;;;;;;;;;;5077788;28;20038;-40
2022/10/04 15:39:03;;;;;;;1.80;1.60;;;;;;;;;;5089608;28;20394;-40
2022/10/04 15:41:45;;;;;;;1.42;1.33;;;;;;;;;;5079711;28;20024;-40
2022/10/04 15:44:24;;;;;;;1.90;1.50;;;;;;;;;;5085331;28;20024;-40
2022/10/04 15:47:06;;;;;;;1.70;1.60;;;;;;;;;;5085078;28;20179;-41